Kyoto Maru — JD3149 — position and weather

sailwx.info

Track history (hours):
 
Tides and Currents Weather Stations Pressure Air Temp Water Temp Dewpoint Dewpoint Depression Visibility Wind Speed Wind Dir Waves Ship Positions

Kyoto Maru

Last reported at 2015-Jan-31 00:34 UTC. Time now 2015-Jan-31 00:46 UTC.
Position N 35°29' E 139°47'.

Length 34 m; draft 3.8 m.

Type: Tug. MMSI: 431002219.

Date/timePositionNaut miles runAvg speedWind from/ knotsBaromVisibWave heightAir tempDewpointWater temp
2015-Jan-31 00:34N 35°29' E 139°47'2 2.4
2015-Jan-30 23:33N 35°28' E 139°44'3 3.3
2015-Jan-30 22:34N 35°27' E 139°41'1 1.1
2015-Jan-30 21:34N 35°26' E 139°41'1 1.4
2015-Jan-30 20:33N 35°27' E 139°39'0 0.0
2015-Jan-30 19:33N 35°27' E 139°39'0 0.0
2015-Jan-30 18:33N 35°27' E 139°39'0 0.0
2015-Jan-30 17:34N 35°27' E 139°39'0 0.0
2015-Jan-30 16:33N 35°27' E 139°39'0 0.0
2015-Jan-30 15:34N 35°27' E 139°39'0 0.0
2015-Jan-30 14:34N 35°27' E 139°39'0 0.0
2015-Jan-30 13:33N 35°27' E 139°39'0 0.0
2015-Jan-30 12:34N 35°27' E 139°39'1 1.4
2015-Jan-30 11:34N 35°28' E 139°40'1 1.1
2015-Jan-30 10:33N 35°28' E 139°42'2 2.2
2015-Jan-30 09:34N 35°27' E 139°39'0 0.0
2015-Jan-30 08:34N 35°27' E 139°39'1 1.2
2015-Jan-30 07:33N 35°27' E 139°41'0 0.5
2015-Jan-30 06:33N 35°27' E 139°41'1 1.3
2015-Jan-30 05:33N 35°27' E 139°39'0 0.0
2015-Jan-30 04:34N 35°27' E 139°39'0 0.0
2015-Jan-30 03:34N 35°27' E 139°39'0 0.0
2015-Jan-30 02:34N 35°27' E 139°39'0 0.0
2015-Jan-30 01:34N 35°27' E 139°39'0 0.0
2015-Jan-30 00:34N 35°27' E 139°39'0 0.3
2015-Jan-29 23:34N 35°27' E 139°39'3 3.0
2015-Jan-29 22:34N 35°27' E 139°43'3 2.5
2015-Jan-29 21:33N 35°27' E 139°40'0 0.3
2015-Jan-29 20:34N 35°27' E 139°39'0 0.0
2015-Jan-29 19:33N 35°27' E 139°39'0 0.0
2015-Jan-29 18:34N 35°27' E 139°39'0 0.0
2015-Jan-29 17:34N 35°27' E 139°39'0 0.0
2015-Jan-29 16:34N 35°27' E 139°39'0 0.0
2015-Jan-29 15:34N 35°27' E 139°39'0 0.0
2015-Jan-29 14:34N 35°27' E 139°39'0 0.0
2015-Jan-29 13:34N 35°27' E 139°39'0 0.0
2015-Jan-29 12:34N 35°27' E 139°39'4 4.1
2015-Jan-29 11:34N 35°28' E 139°44'2 1.8
2015-Jan-29 10:34N 35°29' E 139°46'2 2.0
2015-Jan-29 09:34N 35°28' E 139°44'0 0.0
2015-Jan-29 08:34N 35°28' E 139°44'3 3.2
2015-Jan-29 07:33N 35°27' E 139°40'1 0.9
2015-Jan-29 06:34N 35°27' E 139°39'0 0.0
2015-Jan-29 05:34N 35°27' E 139°39'0 0.0
2015-Jan-29 04:34N 35°27' E 139°39'0 0.0
2015-Jan-29 03:34N 35°27' E 139°39'2 1.7
2015-Jan-29 02:33N 35°27' E 139°41'3 2.7
2015-Jan-29 01:34N 35°28' E 139°44'2 2.4
2015-Jan-29 00:33N 35°29' E 139°47'4 3.7
2015-Jan-28 23:34N 35°27' E 139°43'3 3.2
2015-Jan-28 22:34N 35°27' E 139°39'0 0.0
2015-Jan-28 21:33N 35°27' E 139°39'0 0.0
2015-Jan-28 20:34N 35°27' E 139°39'0 0.0
2015-Jan-28 19:34N 35°27' E 139°39'0 0.0
2015-Jan-28 18:34N 35°27' E 139°39'0 0.0
2015-Jan-28 17:34N 35°27' E 139°39'0 0.0
2015-Jan-28 16:33N 35°27' E 139°39'0 0.0
2015-Jan-28 15:33N 35°27' E 139°39'0 0.0
2015-Jan-28 14:33N 35°27' E 139°39'0 0.0
2015-Jan-28 13:34N 35°27' E 139°39'0 0.0
2015-Jan-28 12:34N 35°27' E 139°39'0 0.0
2015-Jan-28 11:33N 35°27' E 139°39'0 0.0
2015-Jan-28 10:34N 35°27' E 139°39'0 0.0
2015-Jan-28 09:34N 35°27' E 139°39'0 0.0
2015-Jan-28 08:34N 35°27' E 139°39'0 0.0
2015-Jan-28 07:33N 35°27' E 139°39'0 0.0
2015-Jan-28 06:34N 35°27' E 139°39'0 0.0
2015-Jan-28 05:33N 35°27' E 139°39'0 0.0
2015-Jan-28 04:33N 35°27' E 139°39'0 0.0
2015-Jan-28 03:33N 35°27' E 139°39'0 0.0
2015-Jan-28 02:33N 35°27' E 139°39'0 0.0
2015-Jan-28 01:33N 35°27' E 139°39'0 0.0
2015-Jan-28 00:34N 35°27' E 139°39'1 1.0
2015-Jan-27 23:33N 35°27' E 139°41'1 0.5
2015-Jan-27 22:33N 35°27' E 139°40'2 2.1
2015-Jan-27 21:34N 35°26' E 139°42'2 2.2
2015-Jan-27 20:34N 35°28' E 139°42'1 0.7
2015-Jan-27 19:34N 35°27' E 139°42'0 0.0
2015-Jan-27 18:33N 35°27' E 139°42'0 0.0
2015-Jan-27 17:34N 35°27' E 139°42'0 0.0
2015-Jan-27 16:34N 35°27' E 139°42'0 0.0
2015-Jan-27 15:34N 35°27' E 139°42'1 1.0
2015-Jan-27 14:33N 35°26' E 139°41'1 0.8
2015-Jan-27 13:33N 35°27' E 139°42'1 1.2
2015-Jan-27 12:33N 35°28' E 139°42'1 1.1
2015-Jan-27 11:34N 35°28' E 139°40'3 3.4
2015-Jan-27 10:33N 35°26' E 139°44'2 1.6
2015-Jan-27 09:33N 35°27' E 139°42'1 1.3
2015-Jan-27 08:34N 35°26' E 139°41'1 1.4
2015-Jan-27 07:34N 35°27' E 139°39'0 0.2
2015-Jan-27 06:33N 35°27' E 139°39'0 0.0
2015-Jan-27 05:33N 35°27' E 139°39'0 0.0
2015-Jan-27 04:33N 35°27' E 139°39'0 0.0
2015-Jan-27 03:34N 35°27' E 139°39'0 0.0
2015-Jan-27 02:34N 35°27' E 139°39'0 0.0
2015-Jan-27 01:34N 35°27' E 139°39'0 0.0
2015-Jan-27 00:33N 35°27' E 139°39'0 0.0
2015-Jan-26 23:33N 35°27' E 139°39'0 0.0
2015-Jan-26 22:34N 35°27' E 139°39'0 0.0
2015-Jan-26 21:34N 35°27' E 139°39'0 0.0
2015-Jan-26 20:34N 35°27' E 139°39'0 0.0
2015-Jan-26 19:34N 35°27' E 139°39'0 0.0
2015-Jan-26 18:34N 35°27' E 139°39'0 0.0
2015-Jan-26 17:34N 35°27' E 139°39'0 0.0
2015-Jan-26 16:34N 35°27' E 139°39'0 0.0
2015-Jan-26 15:34N 35°27' E 139°39'0 0.0
2015-Jan-26 14:34N 35°27' E 139°39'0 0.0
2015-Jan-26 13:34N 35°27' E 139°39'0 0.0
2015-Jan-26 12:33N 35°27' E 139°39'0 0.0
2015-Jan-26 11:33N 35°27' E 139°39'0 0.0
2015-Jan-26 10:34N 35°27' E 139°39'0 0.0
2015-Jan-26 09:33N 35°27' E 139°39'0 0.0
2015-Jan-26 08:34N 35°27' E 139°39'0 0.0
2015-Jan-26 07:34N 35°27' E 139°39'0 0.0
2015-Jan-26 06:34N 35°27' E 139°39'0 0.0
2015-Jan-26 05:34N 35°27' E 139°39'1 1.3
2015-Jan-26 04:34N 35°27' E 139°41'3 2.8
2015-Jan-26 03:34N 35°25' E 139°39'0 0.2
2015-Jan-26 02:33N 35°25' E 139°39'2 2.1
2015-Jan-26 01:34N 35°23' E 139°41'0 0.2
2015-Jan-26 00:34N 35°23' E 139°41'1 1.0
2015-Jan-25 23:34N 35°24' E 139°40'4 3.8
2015-Jan-25 22:33N 35°27' E 139°41'2 2.3
2015-Jan-25 21:33N 35°26' E 139°43'3 3.5
2015-Jan-25 20:34N 35°27' E 139°39'0 0.1
2015-Jan-25 19:33N 35°27' E 139°39'0 0.0
2015-Jan-25 18:34N 35°27' E 139°39'0 0.0
2015-Jan-25 17:34N 35°27' E 139°39'0 0.0
2015-Jan-25 16:33N 35°27' E 139°39'0 0.0
2015-Jan-25 15:34N 35°27' E 139°39'0 0.0
2015-Jan-25 14:33N 35°27' E 139°39'0 0.0
2015-Jan-25 13:34N 35°27' E 139°39'0 0.0
2015-Jan-25 12:33N 35°27' E 139°39'0 0.0
2015-Jan-25 11:34N 35°27' E 139°39'0 0.0
2015-Jan-25 10:34N 35°27' E 139°39'0 0.0
2015-Jan-25 09:34N 35°27' E 139°39'0 0.0
2015-Jan-25 08:34N 35°27' E 139°39'0 0.0
2015-Jan-25 07:34N 35°27' E 139°39'0 0.0
2015-Jan-25 06:34N 35°27' E 139°39'0 0.0
2015-Jan-25 05:34N 35°27' E 139°39'0 0.0
2015-Jan-25 04:33N 35°27' E 139°39'4 4.3
2015-Jan-25 03:33N 35°28' E 139°44'0 0.1
2015-Jan-25 02:33N 35°28' E 139°44'1 0.7
2015-Jan-25 01:34N 35°28' E 139°44'4 3.8
2015-Jan-25 00:33N 35°27' E 139°40'0 0.4
2015-Jan-24 23:33N 35°27' E 139°39'2 1.8
2015-Jan-24 22:33N 35°28' E 139°41'2 1.9
2015-Jan-24 21:34N 35°27' E 139°43'3 2.7
2015-Jan-24 20:33N 35°27' E 139°39'0 0.0
2015-Jan-24 19:33N 35°27' E 139°39'0 0.0
2015-Jan-24 18:33N 35°27' E 139°39'0 0.0
2015-Jan-24 17:33N 35°27' E 139°39'0 0.0
2015-Jan-24 16:33N 35°27' E 139°39'0 0.0
2015-Jan-24 15:33N 35°27' E 139°39'0 0.0
2015-Jan-24 14:33N 35°27' E 139°39'0 0.0
2015-Jan-24 13:33N 35°27' E 139°39'0 0.0
2015-Jan-24 12:33N 35°27' E 139°39'0 0.0
2015-Jan-24 11:33N 35°27' E 139°39'0 0.0
2015-Jan-24 10:33N 35°27' E 139°39'0 0.0
2015-Jan-24 09:33N 35°27' E 139°39'0 0.0
2015-Jan-24 08:33N 35°27' E 139°39'0 0.0
2015-Jan-24 07:33N 35°27' E 139°39'1 1.1
2015-Jan-24 06:33N 35°28' E 139°40'0 0.1
2015-Jan-24 05:33N 35°28' E 139°41'0 0.0
2015-Jan-24 04:34N 35°28' E 139°41'2 1.7
2015-Jan-24 03:33N 35°26' E 139°42'2 2.2
2015-Jan-24 02:33N 35°27' E 139°39'0 0.0
2015-Jan-24 01:33N 35°27' E 139°39'0 0.0
2015-Jan-24 00:33N 35°27' E 139°39'1 1.2
2015-Jan-23 23:33N 35°27' E 139°41'3 2.6
2015-Jan-23 22:33N 35°25' E 139°43'2 1.6
2015-Jan-23 21:33N 35°27' E 139°42'2 1.9
2015-Jan-23 20:33N 35°27' E 139°39'0 0.0
2015-Jan-23 19:33N 35°27' E 139°39'0 0.0
2015-Jan-23 18:33N 35°27' E 139°39'0 0.0
2015-Jan-23 17:33N 35°27' E 139°39'0 0.0
2015-Jan-23 16:33N 35°27' E 139°39'0 0.0
2015-Jan-23 15:33N 35°27' E 139°39'0 0.0
2015-Jan-23 14:33N 35°27' E 139°39'0 0.0
2015-Jan-23 13:33N 35°27' E 139°39'0 0.0
2015-Jan-23 12:33N 35°27' E 139°39'1 0.9
2015-Jan-23 11:33N 35°27' E 139°40'2 1.7
2015-Jan-23 10:34N 35°27' E 139°42'2 2.4
2015-Jan-23 09:33N 35°27' E 139°39'1 0.7
2015-Jan-23 08:33N 35°27' E 139°40'1 0.7
2015-Jan-23 07:33N 35°27' E 139°39'0 0.0
2015-Jan-23 06:33N 35°27' E 139°39'2 1.6
2015-Jan-23 05:34N 35°27' E 139°41'3 2.6
2015-Jan-23 04:29N 35°28' E 139°44'0 0.1
2015-Jan-23 03:32N 35°28' E 139°44'3 2.9
2015-Jan-23 02:33N 35°26' E 139°46'5 5.4
2015-Jan-23 01:33N 35°27' E 139°39'0 0.0
2015-Jan-23 00:33N 35°27' E 139°39'0 0.0
2015-Jan-22 23:33N 35°27' E 139°39'0 0.0
2015-Jan-22 22:33N 35°27' E 139°39'0 0.0
2015-Jan-22 21:33N 35°27' E 139°39'0 0.0
2015-Jan-22 20:33N 35°27' E 139°39'0 0.0
2015-Jan-22 19:33N 35°27' E 139°39'0 0.0
2015-Jan-22 18:33N 35°27' E 139°39'0 0.0
2015-Jan-22 17:33N 35°27' E 139°39'0 0.0
2015-Jan-22 16:33N 35°27' E 139°39'0 0.0
2015-Jan-22 15:33N 35°27' E 139°39'0 0.0
2015-Jan-22 14:33N 35°27' E 139°39'0 0.0
2015-Jan-22 13:33N 35°27' E 139°39'0 0.0
2015-Jan-22 12:33N 35°27' E 139°39'0 0.0
2015-Jan-22 11:33N 35°27' E 139°39'0 0.0
2015-Jan-22 10:33N 35°27' E 139°39'0 0.0
2015-Jan-22 09:33N 35°27' E 139°39'0 0.0
2015-Jan-22 08:33N 35°27' E 139°39'0 0.0
2015-Jan-22 07:33N 35°27' E 139°39'0 0.0
2015-Jan-22 06:33N 35°27' E 139°39'1 1.1
2015-Jan-22 05:33N 35°28' E 139°40'0 0.0
2015-Jan-22 04:33N 35°28' E 139°40'0 0.0
2015-Jan-22 03:33N 35°28' E 139°40'0 0.0
2015-Jan-22 02:33N 35°28' E 139°40'6 5.6
2015-Jan-22 01:34N 35°31' E 139°46'2 2.3
2015-Jan-22 00:33N 35°29' E 139°47'3 2.8
2015-Jan-21 23:33N 35°28' E 139°44'2 2.3
2015-Jan-21 22:50N 35°28' E 139°42'0 4.9
2015-Jan-21 22:46N 35°28' E 139°42'1 6.7
2015-Jan-21 22:33N 35°27' E 139°43'3 3.3
2015-Jan-21 21:34N 35°27' E 139°39'0 0.1
2015-Jan-21 20:33N 35°27' E 139°39'0 0.0
2015-Jan-21 19:33N 35°27' E 139°39'0 0.0
2015-Jan-21 18:33N 35°27' E 139°39'0 0.0
2015-Jan-21 17:33N 35°27' E 139°39'0 0.0
2015-Jan-21 16:33N 35°27' E 139°39'0 0.0
2015-Jan-21 15:33N 35°27' E 139°39'0 0.0
2015-Jan-21 14:33N 35°27' E 139°39'0 0.0
2015-Jan-21 13:33N 35°27' E 139°39'0 0.0
2015-Jan-21 12:33N 35°27' E 139°39'0 0.0
2015-Jan-21 11:33N 35°27' E 139°39'0 0.1
2015-Jan-21 10:34N 35°27' E 139°39'3 3.1
2015-Jan-21 09:34N 35°27' E 139°43'0 0.4
2015-Jan-21 08:33N 35°27' E 139°43'0 0.5
2015-Jan-21 07:33N 35°27' E 139°43'2 2.2
2015-Jan-21 06:33N 35°28' E 139°41'0 0.0
2015-Jan-21 05:33N 35°28' E 139°41'0 0.0
2015-Jan-21 04:33N 35°28' E 139°41'0 0.0
2015-Jan-21 03:33N 35°28' E 139°41'0 0.0
2015-Jan-21 02:33N 35°28' E 139°41'0 0.0
2015-Jan-21 01:33N 35°28' E 139°41'  
Track history (hours):
 
Tides and Currents Weather Stations Pressure Air Temp Water Temp Dewpoint Dewpoint Depression Visibility Wind Speed Wind Dir Waves Ship Positions

Kyoto Maru

Last reported at 2015-Jan-31 00:34 UTC. Time now 2015-Jan-31 00:46 UTC.
Position N 35°29' E 139°47'.

Length 34 m; draft 3.8 m.

Type: Tug. MMSI: 431002219.

Date/timePositionNaut miles runAvg speedWind from/ knotsBaromVisibWave heightAir tempDewpointWater temp
2015-Jan-31 00:34N 35°29' E 139°47'2 2.4
2015-Jan-30 23:33N 35°28' E 139°44'3 3.3
2015-Jan-30 22:34N 35°27' E 139°41'1 1.1
2015-Jan-30 21:34N 35°26' E 139°41'1 1.4
2015-Jan-30 20:33N 35°27' E 139°39'0 0.0
2015-Jan-30 19:33N 35°27' E 139°39'0 0.0
2015-Jan-30 18:33N 35°27' E 139°39'0 0.0
2015-Jan-30 17:34N 35°27' E 139°39'0 0.0
2015-Jan-30 16:33N 35°27' E 139°39'0 0.0
2015-Jan-30 15:34N 35°27' E 139°39'0 0.0
2015-Jan-30 14:34N 35°27' E 139°39'0 0.0
2015-Jan-30 13:33N 35°27' E 139°39'0 0.0
2015-Jan-30 12:34N 35°27' E 139°39'1 1.4
2015-Jan-30 11:34N 35°28' E 139°40'1 1.1
2015-Jan-30 10:33N 35°28' E 139°42'2 2.2
2015-Jan-30 09:34N 35°27' E 139°39'0 0.0
2015-Jan-30 08:34N 35°27' E 139°39'1 1.2
2015-Jan-30 07:33N 35°27' E 139°41'0 0.5
2015-Jan-30 06:33N 35°27' E 139°41'1 1.3
2015-Jan-30 05:33N 35°27' E 139°39'0 0.0
2015-Jan-30 04:34N 35°27' E 139°39'0 0.0
2015-Jan-30 03:34N 35°27' E 139°39'0 0.0
2015-Jan-30 02:34N 35°27' E 139°39'0 0.0
2015-Jan-30 01:34N 35°27' E 139°39'0 0.0
2015-Jan-30 00:34N 35°27' E 139°39'0 0.3
2015-Jan-29 23:34N 35°27' E 139°39'3 3.0
2015-Jan-29 22:34N 35°27' E 139°43'3 2.5
2015-Jan-29 21:33N 35°27' E 139°40'0 0.3
2015-Jan-29 20:34N 35°27' E 139°39'0 0.0
2015-Jan-29 19:33N 35°27' E 139°39'0 0.0
2015-Jan-29 18:34N 35°27' E 139°39'0 0.0
2015-Jan-29 17:34N 35°27' E 139°39'0 0.0
2015-Jan-29 16:34N 35°27' E 139°39'0 0.0
2015-Jan-29 15:34N 35°27' E 139°39'0 0.0
2015-Jan-29 14:34N 35°27' E 139°39'0 0.0
2015-Jan-29 13:34N 35°27' E 139°39'0 0.0
2015-Jan-29 12:34N 35°27' E 139°39'4 4.1
2015-Jan-29 11:34N 35°28' E 139°44'2 1.8
2015-Jan-29 10:34N 35°29' E 139°46'2 2.0
2015-Jan-29 09:34N 35°28' E 139°44'0 0.0
2015-Jan-29 08:34N 35°28' E 139°44'3 3.2
2015-Jan-29 07:33N 35°27' E 139°40'1 0.9
2015-Jan-29 06:34N 35°27' E 139°39'0 0.0
2015-Jan-29 05:34N 35°27' E 139°39'0 0.0
2015-Jan-29 04:34N 35°27' E 139°39'0 0.0
2015-Jan-29 03:34N 35°27' E 139°39'2 1.7
2015-Jan-29 02:33N 35°27' E 139°41'3 2.7
2015-Jan-29 01:34N 35°28' E 139°44'2 2.4
2015-Jan-29 00:33N 35°29' E 139°47'4 3.7
2015-Jan-28 23:34N 35°27' E 139°43'3 3.2
2015-Jan-28 22:34N 35°27' E 139°39'0 0.0
2015-Jan-28 21:33N 35°27' E 139°39'0 0.0
2015-Jan-28 20:34N 35°27' E 139°39'0 0.0
2015-Jan-28 19:34N 35°27' E 139°39'0 0.0
2015-Jan-28 18:34N 35°27' E 139°39'0 0.0
2015-Jan-28 17:34N 35°27' E 139°39'0 0.0
2015-Jan-28 16:33N 35°27' E 139°39'0 0.0
2015-Jan-28 15:33N 35°27' E 139°39'0 0.0
2015-Jan-28 14:33N 35°27' E 139°39'0 0.0
2015-Jan-28 13:34N 35°27' E 139°39'0 0.0
2015-Jan-28 12:34N 35°27' E 139°39'0 0.0
2015-Jan-28 11:33N 35°27' E 139°39'0 0.0
2015-Jan-28 10:34N 35°27' E 139°39'0 0.0
2015-Jan-28 09:34N 35°27' E 139°39'0 0.0
2015-Jan-28 08:34N 35°27' E 139°39'0 0.0
2015-Jan-28 07:33N 35°27' E 139°39'0 0.0
2015-Jan-28 06:34N 35°27' E 139°39'0 0.0
2015-Jan-28 05:33N 35°27' E 139°39'0 0.0
2015-Jan-28 04:33N 35°27' E 139°39'0 0.0
2015-Jan-28 03:33N 35°27' E 139°39'0 0.0
2015-Jan-28 02:33N 35°27' E 139°39'0 0.0
2015-Jan-28 01:33N 35°27' E 139°39'0 0.0
2015-Jan-28 00:34N 35°27' E 139°39'1 1.0
2015-Jan-27 23:33N 35°27' E 139°41'1 0.5
2015-Jan-27 22:33N 35°27' E 139°40'2 2.1
2015-Jan-27 21:34N 35°26' E 139°42'2 2.2
2015-Jan-27 20:34N 35°28' E 139°42'1 0.7
2015-Jan-27 19:34N 35°27' E 139°42'0 0.0
2015-Jan-27 18:33N 35°27' E 139°42'0 0.0
2015-Jan-27 17:34N 35°27' E 139°42'0 0.0
2015-Jan-27 16:34N 35°27' E 139°42'0 0.0
2015-Jan-27 15:34N 35°27' E 139°42'1 1.0
2015-Jan-27 14:33N 35°26' E 139°41'1 0.8
2015-Jan-27 13:33N 35°27' E 139°42'1 1.2
2015-Jan-27 12:33N 35°28' E 139°42'1 1.1
2015-Jan-27 11:34N 35°28' E 139°40'3 3.4
2015-Jan-27 10:33N 35°26' E 139°44'2 1.6
2015-Jan-27 09:33N 35°27' E 139°42'1 1.3
2015-Jan-27 08:34N 35°26' E 139°41'1 1.4
2015-Jan-27 07:34N 35°27' E 139°39'0 0.2
2015-Jan-27 06:33N 35°27' E 139°39'0 0.0
2015-Jan-27 05:33N 35°27' E 139°39'0 0.0
2015-Jan-27 04:33N 35°27' E 139°39'0 0.0
2015-Jan-27 03:34N 35°27' E 139°39'0 0.0
2015-Jan-27 02:34N 35°27' E 139°39'0 0.0
2015-Jan-27 01:34N 35°27' E 139°39'0 0.0
2015-Jan-27 00:33N 35°27' E 139°39'0 0.0
2015-Jan-26 23:33N 35°27' E 139°39'0 0.0
2015-Jan-26 22:34N 35°27' E 139°39'0 0.0
2015-Jan-26 21:34N 35°27' E 139°39'0 0.0
2015-Jan-26 20:34N 35°27' E 139°39'0 0.0
2015-Jan-26 19:34N 35°27' E 139°39'0 0.0
2015-Jan-26 18:34N 35°27' E 139°39'0 0.0
2015-Jan-26 17:34N 35°27' E 139°39'0 0.0
2015-Jan-26 16:34N 35°27' E 139°39'0 0.0
2015-Jan-26 15:34N 35°27' E 139°39'0 0.0
2015-Jan-26 14:34N 35°27' E 139°39'0 0.0
2015-Jan-26 13:34N 35°27' E 139°39'0 0.0
2015-Jan-26 12:33N 35°27' E 139°39'0 0.0
2015-Jan-26 11:33N 35°27' E 139°39'0 0.0
2015-Jan-26 10:34N 35°27' E 139°39'0 0.0
2015-Jan-26 09:33N 35°27' E 139°39'0 0.0
2015-Jan-26 08:34N 35°27' E 139°39'0 0.0
2015-Jan-26 07:34N 35°27' E 139°39'0 0.0
2015-Jan-26 06:34N 35°27' E 139°39'0 0.0
2015-Jan-26 05:34N 35°27' E 139°39'1 1.3
2015-Jan-26 04:34N 35°27' E 139°41'3 2.8
2015-Jan-26 03:34N 35°25' E 139°39'0 0.2
2015-Jan-26 02:33N 35°25' E 139°39'2 2.1
2015-Jan-26 01:34N 35°23' E 139°41'0 0.2
2015-Jan-26 00:34N 35°23' E 139°41'1 1.0
2015-Jan-25 23:34N 35°24' E 139°40'4 3.8
2015-Jan-25 22:33N 35°27' E 139°41'2 2.3
2015-Jan-25 21:33N 35°26' E 139°43'3 3.5
2015-Jan-25 20:34N 35°27' E 139°39'0 0.1
2015-Jan-25 19:33N 35°27' E 139°39'0 0.0
2015-Jan-25 18:34N 35°27' E 139°39'0 0.0
2015-Jan-25 17:34N 35°27' E 139°39'0 0.0
2015-Jan-25 16:33N 35°27' E 139°39'0 0.0
2015-Jan-25 15:34N 35°27' E 139°39'0 0.0
2015-Jan-25 14:33N 35°27' E 139°39'0 0.0
2015-Jan-25 13:34N 35°27' E 139°39'0 0.0
2015-Jan-25 12:33N 35°27' E 139°39'0 0.0
2015-Jan-25 11:34N 35°27' E 139°39'0 0.0
2015-Jan-25 10:34N 35°27' E 139°39'0 0.0
2015-Jan-25 09:34N 35°27' E 139°39'0 0.0
2015-Jan-25 08:34N 35°27' E 139°39'0 0.0
2015-Jan-25 07:34N 35°27' E 139°39'0 0.0
2015-Jan-25 06:34N 35°27' E 139°39'0 0.0
2015-Jan-25 05:34N 35°27' E 139°39'0 0.0
2015-Jan-25 04:33N 35°27' E 139°39'4 4.3
2015-Jan-25 03:33N 35°28' E 139°44'0 0.1
2015-Jan-25 02:33N 35°28' E 139°44'1 0.7
2015-Jan-25 01:34N 35°28' E 139°44'4 3.8
2015-Jan-25 00:33N 35°27' E 139°40'0 0.4
2015-Jan-24 23:33N 35°27' E 139°39'2 1.8
2015-Jan-24 22:33N 35°28' E 139°41'2 1.9
2015-Jan-24 21:34N 35°27' E 139°43'3 2.7
2015-Jan-24 20:33N 35°27' E 139°39'0 0.0
2015-Jan-24 19:33N 35°27' E 139°39'0 0.0
2015-Jan-24 18:33N 35°27' E 139°39'0 0.0
2015-Jan-24 17:33N 35°27' E 139°39'0 0.0
2015-Jan-24 16:33N 35°27' E 139°39'0 0.0
2015-Jan-24 15:33N 35°27' E 139°39'0 0.0
2015-Jan-24 14:33N 35°27' E 139°39'0 0.0
2015-Jan-24 13:33N 35°27' E 139°39'0 0.0
2015-Jan-24 12:33N 35°27' E 139°39'0 0.0
2015-Jan-24 11:33N 35°27' E 139°39'0 0.0
2015-Jan-24 10:33N 35°27' E 139°39'0 0.0
2015-Jan-24 09:33N 35°27' E 139°39'0 0.0
2015-Jan-24 08:33N 35°27' E 139°39'0 0.0
2015-Jan-24 07:33N 35°27' E 139°39'1 1.1
2015-Jan-24 06:33N 35°28' E 139°40'0 0.1
2015-Jan-24 05:33N 35°28' E 139°41'0 0.0
2015-Jan-24 04:34N 35°28' E 139°41'2 1.7
2015-Jan-24 03:33N 35°26' E 139°42'2 2.2
2015-Jan-24 02:33N 35°27' E 139°39'0 0.0
2015-Jan-24 01:33N 35°27' E 139°39'0 0.0
2015-Jan-24 00:33N 35°27' E 139°39'1 1.2
2015-Jan-23 23:33N 35°27' E 139°41'3 2.6
2015-Jan-23 22:33N 35°25' E 139°43'2 1.6
2015-Jan-23 21:33N 35°27' E 139°42'2 1.9
2015-Jan-23 20:33N 35°27' E 139°39'0 0.0
2015-Jan-23 19:33N 35°27' E 139°39'0 0.0
2015-Jan-23 18:33N 35°27' E 139°39'0 0.0
2015-Jan-23 17:33N 35°27' E 139°39'0 0.0
2015-Jan-23 16:33N 35°27' E 139°39'0 0.0
2015-Jan-23 15:33N 35°27' E 139°39'0 0.0
2015-Jan-23 14:33N 35°27' E 139°39'0 0.0
2015-Jan-23 13:33N 35°27' E 139°39'0 0.0
2015-Jan-23 12:33N 35°27' E 139°39'1 0.9
2015-Jan-23 11:33N 35°27' E 139°40'2 1.7
2015-Jan-23 10:34N 35°27' E 139°42'2 2.4
2015-Jan-23 09:33N 35°27' E 139°39'1 0.7
2015-Jan-23 08:33N 35°27' E 139°40'1 0.7
2015-Jan-23 07:33N 35°27' E 139°39'0 0.0
2015-Jan-23 06:33N 35°27' E 139°39'2 1.6
2015-Jan-23 05:34N 35°27' E 139°41'3 2.6
2015-Jan-23 04:29N 35°28' E 139°44'0 0.1
2015-Jan-23 03:32N 35°28' E 139°44'3 2.9
2015-Jan-23 02:33N 35°26' E 139°46'5 5.4
2015-Jan-23 01:33N 35°27' E 139°39'0 0.0
2015-Jan-23 00:33N 35°27' E 139°39'0 0.0
2015-Jan-22 23:33N 35°27' E 139°39'0 0.0
2015-Jan-22 22:33N 35°27' E 139°39'0 0.0
2015-Jan-22 21:33N 35°27' E 139°39'0 0.0
2015-Jan-22 20:33N 35°27' E 139°39'0 0.0
2015-Jan-22 19:33N 35°27' E 139°39'0 0.0
2015-Jan-22 18:33N 35°27' E 139°39'0 0.0
2015-Jan-22 17:33N 35°27' E 139°39'0 0.0
2015-Jan-22 16:33N 35°27' E 139°39'0 0.0
2015-Jan-22 15:33N 35°27' E 139°39'0 0.0
2015-Jan-22 14:33N 35°27' E 139°39'0 0.0
2015-Jan-22 13:33N 35°27' E 139°39'0 0.0
2015-Jan-22 12:33N 35°27' E 139°39'0 0.0
2015-Jan-22 11:33N 35°27' E 139°39'0 0.0
2015-Jan-22 10:33N 35°27' E 139°39'0 0.0
2015-Jan-22 09:33N 35°27' E 139°39'0 0.0
2015-Jan-22 08:33N 35°27' E 139°39'0 0.0
2015-Jan-22 07:33N 35°27' E 139°39'0 0.0
2015-Jan-22 06:33N 35°27' E 139°39'1 1.1
2015-Jan-22 05:33N 35°28' E 139°40'0 0.0
2015-Jan-22 04:33N 35°28' E 139°40'0 0.0
2015-Jan-22 03:33N 35°28' E 139°40'0 0.0
2015-Jan-22 02:33N 35°28' E 139°40'6 5.6
2015-Jan-22 01:34N 35°31' E 139°46'2 2.3
2015-Jan-22 00:33N 35°29' E 139°47'3 2.8
2015-Jan-21 23:33N 35°28' E 139°44'2 2.3
2015-Jan-21 22:50N 35°28' E 139°42'0 4.9
2015-Jan-21 22:46N 35°28' E 139°42'1 6.7
2015-Jan-21 22:33N 35°27' E 139°43'3 3.3
2015-Jan-21 21:34N 35°27' E 139°39'0 0.1
2015-Jan-21 20:33N 35°27' E 139°39'0 0.0
2015-Jan-21 19:33N 35°27' E 139°39'0 0.0
2015-Jan-21 18:33N 35°27' E 139°39'0 0.0
2015-Jan-21 17:33N 35°27' E 139°39'0 0.0
2015-Jan-21 16:33N 35°27' E 139°39'0 0.0
2015-Jan-21 15:33N 35°27' E 139°39'0 0.0
2015-Jan-21 14:33N 35°27' E 139°39'0 0.0
2015-Jan-21 13:33N 35°27' E 139°39'0 0.0
2015-Jan-21 12:33N 35°27' E 139°39'0 0.0
2015-Jan-21 11:33N 35°27' E 139°39'0 0.1
2015-Jan-21 10:34N 35°27' E 139°39'3 3.1
2015-Jan-21 09:34N 35°27' E 139°43'0 0.4
2015-Jan-21 08:33N 35°27' E 139°43'0 0.5
2015-Jan-21 07:33N 35°27' E 139°43'2 2.2
2015-Jan-21 06:33N 35°28' E 139°41'0 0.0
2015-Jan-21 05:33N 35°28' E 139°41'0 0.0
2015-Jan-21 04:33N 35°28' E 139°41'0 0.0
2015-Jan-21 03:33N 35°28' E 139°41'0 0.0
2015-Jan-21 02:33N 35°28' E 139°41'0 0.0
2015-Jan-21 01:33N 35°28' E 139°41'  

Dump ship's entire track history